Time;durP1;ratioP1;P1;durP2;ratioP2;P2;SDS_P1;SDS_P2;PMS_P1;PMS_P2;Temp;Humidity;BMP_temperature;BMP_pressure;BME280_temperature;BME280_humidity;BME280_pressure;Samples;Min_cycle;Max_cycle;Signal;HPM_P1;HPM_P2
2022/03/09 00:02:11;;;;;;;117.05;54.05;;;;;;;;;;5024468;28;20209;-94
2022/03/09 00:04:37;;;;;;;122.03;54.78;;;;;;;;;;5028735;28;20227;-92
2022/03/09 00:07:04;;;;;;;117.50;53.45;;;;;;;;;;5043272;28;20648;-94
2022/03/09 00:09:32;;;;;;;128.95;57.28;;;;;;;;;;5042816;28;20284;-96
2022/03/09 00:11:59;;;;;;;118.28;54.35;;;;;;;;;;5043731;28;20208;-94
2022/03/09 00:14:25;;;;;;;129.77;58.90;;;;;;;;;;5040210;28;20239;-93
2022/03/09 00:16:52;;;;;;;118.75;53.22;;;;;;;;;;5024067;28;20665;-92
2022/03/09 00:19:18;;;;;;;129.35;56.80;;;;;;;;;;5022795;28;20234;-92
2022/03/09 00:21:45;;;;;;;128.73;55.63;;;;;;;;;;5023032;28;20200;-92
2022/03/09 00:24:11;;;;;;;126.85;54.92;;;;;;;;;;5023485;28;20201;-93
2022/03/09 00:26:39;;;;;;;126.82;56.75;;;;;;;;;;5023999;28;20201;-93
2022/03/09 00:29:05;;;;;;;125.97;55.97;;;;;;;;;;5026144;28;20197;-93
2022/03/09 00:31:32;;;;;;;125.75;55.83;;;;;;;;;;5026206;28;20201;-92
2022/03/09 00:33:58;;;;;;;128.95;56.08;;;;;;;;;;5026755;28;20201;-92
2022/03/09 00:36:25;;;;;;;121.93;54.80;;;;;;;;;;5044800;28;20671;-93
2022/03/09 00:38:51;;;;;;;127.43;56.75;;;;;;;;;;5046750;28;20197;-92
2022/03/09 00:41:18;;;;;;;129.02;56.70;;;;;;;;;;5046173;28;20208;-93
2022/03/09 00:43:46;;;;;;;126.38;55.72;;;;;;;;;;5045700;28;20254;-94
2022/03/09 00:46:12;;;;;;;131.20;54.90;;;;;;;;;;5031696;28;20791;-92
2022/03/09 00:48:39;;;;;;;124.35;55.15;;;;;;;;;;5027071;28;20247;-92
2022/03/09 00:51:06;;;;;;;124.45;56.15;;;;;;;;;;5026890;28;20197;-92
2022/03/09 00:53:32;;;;;;;120.97;55.20;;;;;;;;;;5026666;28;20233;-93
2022/03/09 00:55:59;;;;;;;120.07;54.40;;;;;;;;;;5026582;28;20255;-92
2022/03/09 00:58:25;;;;;;;117.57;54.30;;;;;;;;;;5026596;28;20611;-94
2022/03/09 01:00:53;;;;;;;119.43;54.58;;;;;;;;;;5026008;28;20565;-92
2022/03/09 01:03:20;;;;;;;133.93;57.85;;;;;;;;;;5024740;28;20845;-92
2022/03/09 01:05:46;;;;;;;125.45;56.75;;;;;;;;;;5035235;28;20643;-93
2022/03/09 01:08:13;;;;;;;116.88;52.42;;;;;;;;;;5044893;28;20270;-92
2022/03/09 01:10:39;;;;;;;116.53;51.80;;;;;;;;;;5043817;28;20220;-93
2022/03/09 01:13:06;;;;;;;127.47;53.53;;;;;;;;;;5046911;28;20661;-92
2022/03/09 01:15:32;;;;;;;123.07;56.45;;;;;;;;;;5037913;28;20233;-93
2022/03/09 01:18:00;;;;;;;124.72;55.50;;;;;;;;;;5025502;28;20256;-93
2022/03/09 01:20:27;;;;;;;125.95;57.03;;;;;;;;;;5024740;28;20653;-93
2022/03/09 01:22:53;;;;;;;113.90;52.17;;;;;;;;;;5026086;28;20205;-93
2022/03/09 01:25:20;;;;;;;131.30;53.80;;;;;;;;;;5026182;28;20599;-92
2022/03/09 01:27:46;;;;;;;120.43;54.83;;;;;;;;;;5027237;28;20351;-93
2022/03/09 01:30:13;;;;;;;110.40;51.65;;;;;;;;;;5026654;28;20201;-92
2022/03/09 01:32:39;;;;;;;119.78;55.10;;;;;;;;;;5024645;28;20197;-94
2022/03/09 01:35:08;;;;;;;126.40;54.60;;;;;;;;;;5028651;28;20243;-95
2022/03/09 01:37:34;;;;;;;117.80;55.83;;;;;;;;;;5045029;28;20204;-93
2022/03/09 01:40:01;;;;;;;110.63;53.22;;;;;;;;;;5040348;28;20603;-94
2022/03/09 01:42:27;;;;;;;104.47;49.78;;;;;;;;;;5025881;28;20197;-94
2022/03/09 01:44:54;;;;;;;114.57;52.63;;;;;;;;;;5028492;28;20201;-96
2022/03/09 01:47:20;;;;;;;120.57;53.83;;;;;;;;;;5046470;28;20211;-95
2022/03/09 01:49:47;;;;;;;122.97;55.03;;;;;;;;;;5046380;28;20227;-95
2022/03/09 01:52:14;;;;;;;116.95;52.20;;;;;;;;;;5046922;28;20200;-95
2022/03/09 01:54:41;;;;;;;111.32;53.30;;;;;;;;;;5045635;28;20223;-95
2022/03/09 01:57:08;;;;;;;116.00;53.53;;;;;;;;;;5044893;28;20204;-95
2022/03/09 01:59:35;;;;;;;120.90;54.13;;;;;;;;;;5044799;28;20205;-95
2022/03/09 02:02:01;;;;;;;113.55;52.80;;;;;;;;;;5044065;28;20251;-95
2022/03/09 02:04:28;;;;;;;124.70;57.25;;;;;;;;;;5045700;28;20232;-95
2022/03/09 02:06:54;;;;;;;127.70;56.65;;;;;;;;;;5045142;28;20243;-93
2022/03/09 02:12:07;;;;;;;114.38;55.20;;;;;;;;;;5045058;28;20208;-94
2022/03/09 02:14:35;;;;;;;124.38;55.10;;;;;;;;;;5045176;28;20719;-95
2022/03/09 02:17:02;;;;;;;111.13;51.03;;;;;;;;;;5044838;28;20224;-96
2022/03/09 02:19:29;;;;;;;112.35;50.35;;;;;;;;;;5045703;28;20562;-95
2022/03/09 02:21:59;;;;;;;121.90;55.70;;;;;;;;;;5026801;28;20208;-95
2022/03/09 02:24:27;;;;;;;123.45;53.15;;;;;;;;;;5043470;28;20648;-93
2022/03/09 02:26:53;;;;;;;126.07;53.90;;;;;;;;;;5045002;28;20652;-93
2022/03/09 02:29:20;;;;;;;110.43;51.42;;;;;;;;;;5046208;28;20277;-94
2022/03/09 02:31:46;;;;;;;116.88;53.83;;;;;;;;;;5027524;28;20222;-94
2022/03/09 02:34:13;;;;;;;104.07;50.25;;;;;;;;;;5023586;28;20225;-94
2022/03/09 02:36:39;;;;;;;109.47;51.75;;;;;;;;;;5024234;28;20356;-95
2022/03/09 02:39:06;;;;;;;117.60;52.72;;;;;;;;;;5025443;28;20205;-94
2022/03/09 02:41:34;;;;;;;128.27;52.40;;;;;;;;;;5025484;28;20237;-95
2022/03/09 02:44:01;;;;;;;107.85;52.03;;;;;;;;;;5024733;28;20284;-95
2022/03/09 02:46:28;;;;;;;121.32;55.15;;;;;;;;;;5035099;28;20273;-93
2022/03/09 02:48:54;;;;;;;121.95;53.30;;;;;;;;;;5045151;28;20197;-96
2022/03/09 02:51:21;;;;;;;114.47;54.15;;;;;;;;;;5045004;28;20200;-94
2022/03/09 02:53:48;;;;;;;113.93;51.47;;;;;;;;;;5044535;28;20266;-93
2022/03/09 02:56:15;;;;;;;111.80;50.65;;;;;;;;;;5045455;28;20331;-95
2022/03/09 02:58:43;;;;;;;130.85;56.10;;;;;;;;;;5043439;28;20197;-95
2022/03/09 03:01:12;;;;;;;115.22;53.97;;;;;;;;;;5030693;28;20212;-95
2022/03/09 03:03:39;;;;;;;109.30;50.28;;;;;;;;;;5024762;28;20205;-94
2022/03/09 03:06:06;;;;;;;124.70;57.33;;;;;;;;;;5024180;28;20197;-94
2022/03/09 03:08:33;;;;;;;115.25;53.42;;;;;;;;;;5027191;28;20220;-94
2022/03/09 03:11:01;;;;;;;125.50;55.58;;;;;;;;;;5025487;28;20201;-96
2022/03/09 03:13:28;;;;;;;117.60;54.97;;;;;;;;;;5024652;28;20205;-94
2022/03/09 03:15:56;;;;;;;124.43;53.72;;;;;;;;;;5029555;28;20224;-92
2022/03/09 03:18:22;;;;;;;121.38;51.95;;;;;;;;;;5044235;28;20398;-96
2022/03/09 03:20:49;;;;;;;127.75;56.70;;;;;;;;;;5044142;28;20200;-92
2022/03/09 03:23:15;;;;;;;122.97;56.15;;;;;;;;;;5043840;28;20263;-94
2022/03/09 03:25:42;;;;;;;124.85;56.15;;;;;;;;;;5043304;28;20228;-96
2022/03/09 03:28:08;;;;;;;123.85;55.72;;;;;;;;;;5044775;28;20200;-92
2022/03/09 03:30:35;;;;;;;126.45;55.38;;;;;;;;;;5034710;28;20197;-93
2022/03/09 03:33:03;;;;;;;118.63;53.33;;;;;;;;;;5024188;28;20737;-92
2022/03/09 03:35:30;;;;;;;139.23;59.15;;;;;;;;;;5024026;28;20240;-92
2022/03/09 03:37:56;;;;;;;125.57;55.75;;;;;;;;;;5022564;28;20232;-92
2022/03/09 03:40:22;;;;;;;120.93;56.50;;;;;;;;;;5021504;28;20202;-94
2022/03/09 03:42:49;;;;;;;127.97;57.30;;;;;;;;;;5023162;28;20244;-92
2022/03/09 03:45:15;;;;;;;120.35;54.30;;;;;;;;;;5029111;28;20730;-94
2022/03/09 03:47:42;;;;;;;129.52;56.90;;;;;;;;;;5043059;28;20197;-92
2022/03/09 03:50:10;;;;;;;127.60;55.63;;;;;;;;;;5042751;28;20204;-93
2022/03/09 03:52:36;;;;;;;128.77;56.28;;;;;;;;;;5042658;28;20684;-92
2022/03/09 03:55:03;;;;;;;121.93;54.95;;;;;;;;;;5043374;28;20201;-92
2022/03/09 03:57:30;;;;;;;124.72;59.10;;;;;;;;;;5042948;28;20212;-95
2022/03/09 03:59:56;;;;;;;130.95;55.60;;;;;;;;;;5043005;28;20231;-96
2022/03/09 04:02:23;;;;;;;131.10;56.53;;;;;;;;;;5042751;28;20223;-92
2022/03/09 04:04:50;;;;;;;124.63;55.22;;;;;;;;;;5041945;28;21103;-92
2022/03/09 04:07:18;;;;;;;127.00;58.63;;;;;;;;;;5041832;28;20207;-92
2022/03/09 04:09:45;;;;;;;126.40;57.58;;;;;;;;;;5042858;28;20258;-92
2022/03/09 04:12:11;;;;;;;113.60;52.15;;;;;;;;;;5043020;28;20227;-92
2022/03/09 04:14:38;;;;;;;129.20;56.05;;;;;;;;;;5043254;28;20204;-92
2022/03/09 04:17:04;;;;;;;120.32;52.38;;;;;;;;;;5035160;28;20251;-94
2022/03/09 04:19:31;;;;;;;112.57;53.47;;;;;;;;;;5041891;28;20221;-91
2022/03/09 04:21:58;;;;;;;121.03;54.33;;;;;;;;;;5042697;28;20267;-93
2022/03/09 04:24:25;;;;;;;129.20;58.65;;;;;;;;;;5042411;28;20196;-94
2022/03/09 04:26:52;;;;;;;116.38;53.25;;;;;;;;;;5043581;28;20224;-93
2022/03/09 04:29:19;;;;;;;121.20;54.80;;;;;;;;;;5044091;28;20270;-95
2022/03/09 04:31:45;;;;;;;118.28;54.08;;;;;;;;;;5025484;28;20201;-93
2022/03/09 04:34:12;;;;;;;121.25;54.70;;;;;;;;;;5023369;28;20259;-92
2022/03/09 04:36:38;;;;;;;127.40;58.20;;;;;;;;;;5023025;28;20255;-93
2022/03/09 04:39:05;;;;;;;125.90;54.78;;;;;;;;;;5023181;28;20227;-92
2022/03/09 04:41:33;;;;;;;116.07;52.50;;;;;;;;;;5023874;28;20193;-95
2022/03/09 04:43:59;;;;;;;111.80;50.95;;;;;;;;;;5020985;28;20201;-94
2022/03/09 04:46:26;;;;;;;126.05;54.35;;;;;;;;;;5022294;28;20197;-92
2022/03/09 04:48:53;;;;;;;125.15;55.42;;;;;;;;;;5022187;28;20201;-92
2022/03/09 04:51:20;;;;;;;122.20;54.58;;;;;;;;;;5022182;28;20216;-93
2022/03/09 04:53:47;;;;;;;117.40;55.78;;;;;;;;;;5021638;28;20198;-94
2022/03/09 04:56:14;;;;;;;115.75;54.00;;;;;;;;;;5024293;28;20379;-95
2022/03/09 04:58:42;;;;;;;126.40;57.58;;;;;;;;;;5042182;28;20211;-93
2022/03/09 05:01:09;;;;;;;119.05;55.42;;;;;;;;;;5028129;28;20715;-95
2022/03/09 05:03:37;;;;;;;114.03;52.80;;;;;;;;;;5023666;28;20213;-96
2022/03/09 05:06:03;;;;;;;117.78;52.90;;;;;;;;;;5023129;28;20210;-94
2022/03/09 05:08:30;;;;;;;124.85;56.47;;;;;;;;;;5022869;28;20256;-93
2022/03/09 05:10:57;;;;;;;130.23;58.00;;;;;;;;;;5022891;28;20232;-94
2022/03/09 05:13:23;;;;;;;123.78;56.55;;;;;;;;;;5023783;28;20197;-94
2022/03/09 05:15:51;;;;;;;121.88;57.20;;;;;;;;;;5026127;28;20283;-94
2022/03/09 05:18:17;;;;;;;117.57;53.50;;;;;;;;;;5045068;28;20250;-94
2022/03/09 05:20:44;;;;;;;110.43;52.53;;;;;;;;;;5046659;28;20213;-94
2022/03/09 05:23:10;;;;;;;108.30;51.42;;;;;;;;;;5045852;28;20224;-94
2022/03/09 05:25:37;;;;;;;112.90;52.50;;;;;;;;;;5044841;28;20231;-93
2022/03/09 05:28:04;;;;;;;128.48;53.78;;;;;;;;;;5044908;28;20197;-96
2022/03/09 05:30:30;;;;;;;112.88;51.53;;;;;;;;;;5037562;28;20989;-88
2022/03/09 05:32:58;;;;;;;118.47;56.35;;;;;;;;;;5025172;28;20224;-94
2022/03/09 05:35:25;;;;;;;122.10;53.50;;;;;;;;;;5024722;28;20236;-95
2022/03/09 05:37:51;;;;;;;125.05;55.28;;;;;;;;;;5024400;28;20728;-95
2022/03/09 05:40:18;;;;;;;105.28;50.05;;;;;;;;;;5024241;28;20205;-91
2022/03/09 05:42:44;;;;;;;113.57;52.83;;;;;;;;;;5027650;28;20827;-95
2022/03/09 05:45:11;;;;;;;108.80;52.78;;;;;;;;;;5026834;28;20292;-94
2022/03/09 05:47:38;;;;;;;123.22;55.97;;;;;;;;;;5024174;28;20205;-96
2022/03/09 05:50:06;;;;;;;115.90;56.35;;;;;;;;;;5022326;28;20221;-93
2022/03/09 05:52:33;;;;;;;117.38;54.45;;;;;;;;;;5023549;28;20197;-95
2022/03/09 05:54:59;;;;;;;108.70;50.78;;;;;;;;;;5026452;28;20276;-96
2022/03/09 05:57:26;;;;;;;123.05;56.08;;;;;;;;;;5024798;28;20229;-94
2022/03/09 05:59:52;;;;;;;116.78;52.40;;;;;;;;;;5023390;28;20823;-95
2022/03/09 06:02:18;;;;;;;107.82;50.03;;;;;;;;;;5032259;28;20200;-96
2022/03/09 06:04:46;;;;;;;126.28;57.83;;;;;;;;;;5045211;28;20250;-94
2022/03/09 06:07:14;;;;;;;97.35;47.05;;;;;;;;;;5043156;28;20223;-94
2022/03/09 06:09:41;;;;;;;110.60;52.83;;;;;;;;;;5043751;28;20201;-94
2022/03/09 06:12:08;;;;;;;110.90;51.55;;;;;;;;;;5044447;28;20185;-91
2022/03/09 06:14:34;;;;;;;120.35;53.97;;;;;;;;;;5043249;28;20232;-96
2022/03/09 06:17:01;;;;;;;104.13;50.83;;;;;;;;;;5028659;28;20274;-95
2022/03/09 06:19:27;;;;;;;112.00;52.97;;;;;;;;;;5045245;28;20200;-96
2022/03/09 06:21:54;;;;;;;128.85;57.35;;;;;;;;;;5044830;28;20215;-95
2022/03/09 06:24:21;;;;;;;113.03;54.45;;;;;;;;;;5043942;28;20197;-96
2022/03/09 06:26:48;;;;;;;119.00;55.72;;;;;;;;;;5042465;28;20208;-96
2022/03/09 06:29:15;;;;;;;123.10;54.85;;;;;;;;;;5025783;28;20209;-94
2022/03/09 06:31:42;;;;;;;113.35;51.75;;;;;;;;;;5026793;28;20293;-96
2022/03/09 06:34:12;;;;;;;119.30;55.22;;;;;;;;;;5045962;28;20212;-96
2022/03/09 06:36:43;;;;;;;124.35;54.30;;;;;;;;;;5039225;28;20735;-96
2022/03/09 06:39:09;;;;;;;118.55;54.13;;;;;;;;;;5035845;28;20190;-96
2022/03/09 06:41:37;;;;;;;131.90;57.05;;;;;;;;;;5031327;28;20244;-96
2022/03/09 06:44:04;;;;;;;126.05;57.22;;;;;;;;;;5034098;28;20268;-94
2022/03/09 06:46:31;;;;;;;124.15;55.85;;;;;;;;;;5032578;28;20209;-96
2022/03/09 06:48:58;;;;;;;121.63;54.50;;;;;;;;;;5037823;28;20197;-96
2022/03/09 06:51:25;;;;;;;114.90;53.50;;;;;;;;;;5034052;28;20203;-96
2022/03/09 06:53:52;;;;;;;112.43;51.83;;;;;;;;;;5046465;28;20204;-96
2022/03/09 06:56:19;;;;;;;108.85;50.63;;;;;;;;;;5047206;28;20651;-95
2022/03/09 06:58:50;;;;;;;114.70;53.80;;;;;;;;;;5040192;28;20193;-96
2022/03/09 07:01:19;;;;;;;114.68;53.30;;;;;;;;;;5035931;28;20202;-96
2022/03/09 07:03:45;;;;;;;120.35;54.97;;;;;;;;;;5035412;28;20253;-96
2022/03/09 07:06:12;;;;;;;126.25;55.00;;;;;;;;;;5041886;28;20661;-95
2022/03/09 07:08:38;;;;;;;115.10;52.85;;;;;;;;;;5036900;28;20200;-96
2022/03/09 07:11:12;;;;;;;119.90;53.80;;;;;;;;;;5038832;28;20197;-95
2022/03/09 07:13:41;;;;;;;123.82;55.53;;;;;;;;;;5039494;28;20165;-96
2022/03/09 07:16:08;;;;;;;106.22;48.53;;;;;;;;;;5039911;28;20201;-96
2022/03/09 07:18:35;;;;;;;122.25;53.30;;;;;;;;;;5037619;28;20197;-96
2022/03/09 07:21:01;;;;;;;117.55;53.47;;;;;;;;;;5042832;28;20193;-96
2022/03/09 07:23:28;;;;;;;122.93;56.80;;;;;;;;;;5039425;28;20204;-96
2022/03/09 07:25:55;;;;;;;126.15;58.05;;;;;;;;;;5030823;28;20533;-96
2022/03/09 07:28:21;;;;;;;133.65;52.55;;;;;;;;;;5033911;28;20208;-96
2022/03/09 07:30:48;;;;;;;118.25;54.05;;;;;;;;;;5027782;28;20197;-96
2022/03/09 07:33:16;;;;;;;119.70;54.50;;;;;;;;;;5031795;28;20220;-96
2022/03/09 07:35:45;;;;;;;115.30;52.97;;;;;;;;;;5033267;28;20224;-95
2022/03/09 07:38:11;;;;;;;115.65;55.40;;;;;;;;;;5028666;28;20679;-96
2022/03/09 07:40:38;;;;;;;133.23;56.13;;;;;;;;;;5025260;28;20232;-96
2022/03/09 07:43:04;;;;;;;119.53;54.25;;;;;;;;;;5034825;28;20196;-96
2022/03/09 07:45:31;;;;;;;108.85;50.95;;;;;;;;;;5045401;28;20207;-96
2022/03/09 07:47:57;;;;;;;115.65;51.72;;;;;;;;;;5044701;28;20626;-91
2022/03/09 07:50:25;;;;;;;119.85;56.38;;;;;;;;;;5041061;28;20204;-96
2022/03/09 07:52:52;;;;;;;108.90;51.88;;;;;;;;;;5025273;28;20193;-95
2022/03/09 07:55:19;;;;;;;125.93;52.90;;;;;;;;;;5031943;28;20194;-95
2022/03/09 07:57:46;;;;;;;122.00;55.90;;;;;;;;;;5039919;28;20311;-94
2022/03/09 08:00:13;;;;;;;135.65;58.92;;;;;;;;;;5030223;28;20201;-96
2022/03/09 08:02:41;;;;;;;123.75;55.25;;;;;;;;;;5028214;28;20652;-96
2022/03/09 08:05:08;;;;;;;124.68;58.08;;;;;;;;;;5044534;28;20204;-96
2022/03/09 08:07:36;;;;;;;119.97;53.03;;;;;;;;;;5043541;28;20201;-94
2022/03/09 08:10:02;;;;;;;137.23;59.25;;;;;;;;;;5043672;28;20208;-96
2022/03/09 08:12:29;;;;;;;113.80;54.20;;;;;;;;;;5043493;28;20204;-95
2022/03/09 08:14:55;;;;;;;130.02;56.88;;;;;;;;;;5038876;28;20201;-96
2022/03/09 08:17:22;;;;;;;127.28;56.63;;;;;;;;;;5029682;28;20227;-96
2022/03/09 08:19:48;;;;;;;131.13;58.78;;;;;;;;;;5040213;28;20212;-96
2022/03/09 08:22:15;;;;;;;122.18;57.45;;;;;;;;;;5043407;28;20201;-96
2022/03/09 08:24:43;;;;;;;134.05;59.85;;;;;;;;;;5026317;28;20252;-96
2022/03/09 08:27:09;;;;;;;123.78;56.85;;;;;;;;;;5022646;28;20228;-96
2022/03/09 08:29:36;;;;;;;119.53;55.50;;;;;;;;;;5021344;28;20226;-96
2022/03/09 08:32:02;;;;;;;136.90;61.42;;;;;;;;;;5024477;28;20201;-96
2022/03/09 08:34:29;;;;;;;128.63;57.20;;;;;;;;;;5043319;28;20200;-96
2022/03/09 08:36:55;;;;;;;136.50;59.25;;;;;;;;;;5047760;28;20240;-96
2022/03/09 08:39:22;;;;;;;136.85;61.53;;;;;;;;;;5042626;28;20223;-94
2022/03/09 08:41:51;;;;;;;122.65;54.15;;;;;;;;;;5044921;28;20200;-96
2022/03/09 08:44:20;;;;;;;133.00;61.25;;;;;;;;;;5024873;28;20232;-96
2022/03/09 08:46:46;;;;;;;132.07;59.30;;;;;;;;;;5039713;28;20236;-96
2022/03/09 08:49:14;;;;;;;119.55;55.75;;;;;;;;;;5048342;28;20207;-96
2022/03/09 08:51:40;;;;;;;129.35;58.70;;;;;;;;;;5050022;28;20222;-96
2022/03/09 08:54:07;;;;;;;121.65;55.15;;;;;;;;;;5036423;28;20224;-94
2022/03/09 08:56:50;;;;;;;124.95;57.60;;;;;;;;;;5028243;28;20201;-96
2022/03/09 08:59:18;;;;;;;133.05;59.35;;;;;;;;;;5040232;28;20215;-94
2022/03/09 09:01:46;;;;;;;126.45;59.03;;;;;;;;;;5047727;28;20250;-96
2022/03/09 09:04:14;;;;;;;128.77;59.70;;;;;;;;;;5059891;22;20191;-96
2022/03/09 09:06:44;;;;;;;127.30;59.00;;;;;;;;;;5048419;28;20260;-94
2022/03/09 09:09:11;;;;;;;126.95;58.55;;;;;;;;;;5049884;28;20204;-94
2022/03/09 09:11:38;;;;;;;125.15;58.80;;;;;;;;;;5048317;28;20189;-93
2022/03/09 09:14:05;;;;;;;127.97;57.90;;;;;;;;;;5046320;28;20229;-96
2022/03/09 09:16:43;;;;;;;133.30;59.40;;;;;;;;;;5050521;28;20177;-96
2022/03/09 09:19:10;;;;;;;137.07;61.50;;;;;;;;;;5046559;28;20224;-94
2022/03/09 09:21:36;;;;;;;119.97;56.28;;;;;;;;;;5046235;28;20205;-94
2022/03/09 09:24:03;;;;;;;134.88;61.83;;;;;;;;;;5045261;28;20204;-93
2022/03/09 09:26:30;;;;;;;138.50;62.47;;;;;;;;;;5045998;28;20205;-95
2022/03/09 09:31:43;;;;;;;132.20;61.72;;;;;;;;;;5046454;28;20192;-94
2022/03/09 09:34:10;;;;;;;139.13;63.55;;;;;;;;;;5045166;28;20211;-94
2022/03/09 09:39:22;;;;;;;133.95;59.58;;;;;;;;;;5043744;28;20192;-96
2022/03/09 09:41:51;;;;;;;130.50;59.88;;;;;;;;;;5046196;28;20224;-96
2022/03/09 09:44:18;;;;;;;133.77;61.63;;;;;;;;;;5043546;28;20220;-96
2022/03/09 09:46:45;;;;;;;133.65;61.38;;;;;;;;;;5027175;28;20220;-94
2022/03/09 09:49:13;;;;;;;134.18;60.90;;;;;;;;;;5035650;28;20205;-96
2022/03/09 09:51:40;;;;;;;138.52;62.08;;;;;;;;;;5045914;28;20239;-95
2022/03/09 09:54:07;;;;;;;137.00;64.43;;;;;;;;;;5044135;28;20192;-94
2022/03/09 09:56:36;;;;;;;137.80;65.60;;;;;;;;;;5039642;28;20204;-95
2022/03/09 09:59:03;;;;;;;135.10;64.38;;;;;;;;;;5038932;28;20229;-95
2022/03/09 10:01:29;;;;;;;134.50;62.72;;;;;;;;;;5044316;28;20205;-94
2022/03/09 10:03:57;;;;;;;143.30;66.35;;;;;;;;;;5044180;28;20219;-92
2022/03/09 10:06:24;;;;;;;135.70;62.63;;;;;;;;;;5043459;28;20219;-95
2022/03/09 10:09:05;;;;;;;136.77;64.87;;;;;;;;;;5042022;28;20539;-91
2022/03/09 10:11:48;;;;;;;135.77;63.60;;;;;;;;;;5042001;28;20516;-92
2022/03/09 10:14:15;;;;;;;141.70;66.97;;;;;;;;;;5043235;28;20443;-92
2022/03/09 10:16:56;;;;;;;140.90;67.23;;;;;;;;;;5042964;28;20858;-92
2022/03/09 10:19:30;;;;;;;140.87;66.77;;;;;;;;;;5042778;28;20564;-91
2022/03/09 10:21:57;;;;;;;143.50;66.70;;;;;;;;;;5043757;28;20470;-92
2022/03/09 10:24:33;;;;;;;136.47;65.43;;;;;;;;;;5043692;28;20443;-93
2022/03/09 10:27:01;;;;;;;139.83;64.97;;;;;;;;;;5043703;28;20485;-96
2022/03/09 10:29:28;;;;;;;134.67;60.60;;;;;;;;;;5044809;28;20531;-96
2022/03/09 10:32:01;;;;;;;134.50;60.60;;;;;;;;;;5050933;28;20448;-96
2022/03/09 10:34:29;;;;;;;128.50;60.33;;;;;;;;;;5047495;28;20509;-94
2022/03/09 10:36:58;;;;;;;123.83;55.90;;;;;;;;;;5045791;28;20471;-96
2022/03/09 10:39:26;;;;;;;127.07;57.85;;;;;;;;;;5050327;28;20515;-96
2022/03/09 10:41:52;;;;;;;134.57;60.65;;;;;;;;;;5048326;28;20204;-96
2022/03/09 10:44:19;;;;;;;126.37;58.70;;;;;;;;;;5046882;28;20228;-96
2022/03/09 10:46:49;;;;;;;121.15;57.55;;;;;;;;;;5030092;28;20499;-96
2022/03/09 10:49:19;;;;;;;122.50;57.00;;;;;;;;;;5016488;28;20203;-94
2022/03/09 10:51:49;;;;;;;123.55;57.67;;;;;;;;;;5046253;28;20208;-96
2022/03/09 10:54:24;;;;;;;121.00;57.30;;;;;;;;;;5047461;28;20233;-95
2022/03/09 10:56:52;;;;;;;127.13;58.25;;;;;;;;;;5045948;28;20227;-96
2022/03/09 10:59:20;;;;;;;119.82;57.08;;;;;;;;;;5045354;28;20228;-95
2022/03/09 11:02:02;;;;;;;116.53;55.53;;;;;;;;;;5024937;28;20265;-95
2022/03/09 11:04:29;;;;;;;121.63;57.03;;;;;;;;;;5031237;28;20228;-96
2022/03/09 11:06:57;;;;;;;136.63;58.60;;;;;;;;;;5046757;28;20204;-95
2022/03/09 11:09:25;;;;;;;127.15;57.70;;;;;;;;;;5046359;28;20227;-94
2022/03/09 11:11:51;;;;;;;122.28;56.50;;;;;;;;;;5045671;28;20204;-95
2022/03/09 11:14:21;;;;;;;128.32;58.15;;;;;;;;;;5045597;28;20205;-96
2022/03/09 11:16:48;;;;;;;124.78;55.40;;;;;;;;;;5045361;28;20212;-96
2022/03/09 11:19:15;;;;;;;121.13;55.83;;;;;;;;;;5046855;28;20223;-94
2022/03/09 11:21:42;;;;;;;121.53;55.40;;;;;;;;;;5046641;28;20197;-96
2022/03/09 11:24:10;;;;;;;120.70;56.00;;;;;;;;;;5046620;28;20201;-96
2022/03/09 11:26:42;;;;;;;117.15;55.97;;;;;;;;;;5046156;28;20455;-94
2022/03/09 11:29:12;;;;;;;119.20;57.53;;;;;;;;;;5044750;28;20192;-96
2022/03/09 11:31:51;;;;;;;118.10;55.20;;;;;;;;;;5044672;28;20205;-95
2022/03/09 11:34:38;;;;;;;124.68;57.53;;;;;;;;;;5044378;28;20447;-93
2022/03/09 11:37:06;;;;;;;116.65;53.90;;;;;;;;;;5045129;28;20235;-93
2022/03/09 11:39:33;;;;;;;121.28;56.53;;;;;;;;;;5045049;28;20306;-95
2022/03/09 11:42:14;;;;;;;120.47;56.27;;;;;;;;;;5045355;28;20204;-92
2022/03/09 11:44:43;;;;;;;119.43;55.67;;;;;;;;;;5028262;28;20447;-95
2022/03/09 11:47:09;;;;;;;121.00;55.70;;;;;;;;;;5043581;28;20451;-95
2022/03/09 11:50:05;;;;;;;122.67;54.83;;;;;;;;;;5043027;28;20459;-92
2022/03/09 11:52:34;;;;;;;119.30;55.87;;;;;;;;;;5044250;28;20463;-96
2022/03/09 11:55:05;;;;;;;117.88;56.92;;;;;;;;;;5043220;28;20447;-96
2022/03/09 11:57:46;;;;;;;120.93;56.60;;;;;;;;;;5045637;28;20307;-96
2022/03/09 12:00:16;;;;;;;122.60;56.70;;;;;;;;;;5044143;28;20472;-96
2022/03/09 12:02:44;;;;;;;117.28;54.67;;;;;;;;;;5045701;28;20613;-94
2022/03/09 12:05:34;;;;;;;116.10;55.57;;;;;;;;;;5043121;28;20263;-94
2022/03/09 12:08:00;;;;;;;119.90;56.03;;;;;;;;;;5044744;28;20485;-96
2022/03/09 12:10:45;;;;;;;115.60;54.00;;;;;;;;;;5044440;28;20447;-94
2022/03/09 12:13:16;;;;;;;125.60;57.97;;;;;;;;;;5045203;28;20200;-95
2022/03/09 12:16:17;;;;;;;112.25;51.97;;;;;;;;;;5043156;28;20950;-95
2022/03/09 12:18:51;;;;;;;121.30;54.97;;;;;;;;;;4983052;28;20281;-94
2022/03/09 12:21:18;;;;;;;113.97;53.30;;;;;;;;;;4980147;28;20338;-96
2022/03/09 12:24:14;;;;;;;114.10;55.10;;;;;;;;;;5011351;28;20448;-95
2022/03/09 12:26:41;;;;;;;119.25;56.75;;;;;;;;;;4973823;28;20205;-95
2022/03/09 12:29:22;;;;;;;121.95;56.63;;;;;;;;;;5023489;28;20228;-96
2022/03/09 12:32:00;;;;;;;118.55;54.40;;;;;;;;;;5023154;28;20736;-94
2022/03/09 12:34:28;;;;;;;114.75;53.65;;;;;;;;;;5028396;28;20219;-92
2022/03/09 12:36:54;;;;;;;115.72;53.63;;;;;;;;;;5044771;28;20204;-95
2022/03/09 12:39:21;;;;;;;119.20;55.42;;;;;;;;;;5041893;28;20224;-96
2022/03/09 12:41:52;;;;;;;117.88;55.25;;;;;;;;;;5044286;28;20205;-95
2022/03/09 12:44:22;;;;;;;121.00;55.08;;;;;;;;;;5042444;28;20196;-96
2022/03/09 12:46:49;;;;;;;116.00;54.72;;;;;;;;;;5024607;28;20248;-96
2022/03/09 12:49:18;;;;;;;115.80;53.28;;;;;;;;;;5025676;28;20205;-96
2022/03/09 12:51:51;;;;;;;116.75;54.65;;;;;;;;;;5043407;28;20692;-94
2022/03/09 12:54:29;;;;;;;117.38;53.15;;;;;;;;;;5043323;28;20231;-94
2022/03/09 12:56:55;;;;;;;122.72;54.72;;;;;;;;;;5043340;28;20204;-94
2022/03/09 12:59:22;;;;;;;116.95;54.80;;;;;;;;;;5043142;28;20232;-93
2022/03/09 13:01:55;;;;;;;117.60;54.28;;;;;;;;;;5024791;28;20232;-95
2022/03/09 13:04:22;;;;;;;120.65;56.83;;;;;;;;;;5022903;28;20264;-94
2022/03/09 13:06:51;;;;;;;115.32;52.85;;;;;;;;;;5042806;28;20250;-93
2022/03/09 13:09:21;;;;;;;118.32;54.25;;;;;;;;;;5042828;28;20232;-95
2022/03/09 13:11:48;;;;;;;118.20;55.50;;;;;;;;;;5040383;28;20208;-95
2022/03/09 13:14:16;;;;;;;114.63;53.40;;;;;;;;;;5026168;28;20703;-94
2022/03/09 13:16:43;;;;;;;117.90;55.03;;;;;;;;;;5024593;28;20201;-94
2022/03/09 13:19:11;;;;;;;118.32;55.60;;;;;;;;;;5020126;28;20283;-96
2022/03/09 13:21:38;;;;;;;118.35;56.38;;;;;;;;;;5040787;28;20205;-92
2022/03/09 13:24:07;;;;;;;119.78;56.20;;;;;;;;;;5042570;28;20200;-95
2022/03/09 13:26:38;;;;;;;117.05;54.42;;;;;;;;;;5042029;28;20204;-94
2022/03/09 13:29:04;;;;;;;121.05;56.33;;;;;;;;;;5041026;28;20239;-91
2022/03/09 13:31:41;;;;;;;120.32;56.08;;;;;;;;;;5039561;28;20197;-94
2022/03/09 13:34:11;;;;;;;116.95;54.67;;;;;;;;;;5041566;28;20236;-93
2022/03/09 13:36:38;;;;;;;115.28;53.40;;;;;;;;;;5045519;28;20197;-92
2022/03/09 13:39:06;;;;;;;115.18;53.03;;;;;;;;;;5045832;28;20236;-92
2022/03/09 13:41:37;;;;;;;119.05;54.25;;;;;;;;;;5045352;28;20197;-92
2022/03/09 13:44:04;;;;;;;117.47;54.03;;;;;;;;;;5045672;28;20201;-90
2022/03/09 13:46:31;;;;;;;119.32;54.67;;;;;;;;;;5045467;28;20217;-94
2022/03/09 13:49:07;;;;;;;114.00;53.50;;;;;;;;;;5046198;28;20212;-94
2022/03/09 13:51:34;;;;;;;115.32;54.42;;;;;;;;;;5046371;28;20247;-91
2022/03/09 13:54:03;;;;;;;119.72;54.78;;;;;;;;;;5045534;28;20205;-91
2022/03/09 13:56:31;;;;;;;117.20;54.60;;;;;;;;;;5044559;28;20283;-93
2022/03/09 13:58:57;;;;;;;117.63;53.33;;;;;;;;;;5044737;28;20286;-90
2022/03/09 14:01:30;;;;;;;111.93;52.55;;;;;;;;;;5043976;28;20196;-89
2022/03/09 14:04:01;;;;;;;113.88;53.63;;;;;;;;;;5045654;28;20226;-91
2022/03/09 14:06:28;;;;;;;118.13;54.95;;;;;;;;;;5045268;28;20189;-90
2022/03/09 14:08:55;;;;;;;116.78;54.80;;;;;;;;;;5044836;28;20204;-92
2022/03/09 14:11:23;;;;;;;122.60;56.47;;;;;;;;;;5043980;28;20231;-91
2022/03/09 14:13:57;;;;;;;119.47;54.90;;;;;;;;;;5044909;28;20232;-93
2022/03/09 14:16:24;;;;;;;119.07;56.00;;;;;;;;;;5044079;28;20230;-94
2022/03/09 14:18:51;;;;;;;114.90;53.80;;;;;;;;;;5045370;28;20782;-93